createdAt,value
2023-11-29T00:01:51.581Z,7.30
2023-11-29T00:04:19.975Z,6.10
2023-11-29T00:06:47.985Z,6.37
2023-11-29T00:09:15.966Z,5.93
2023-11-29T00:11:44.305Z,6.90
2023-11-29T00:14:12.410Z,5.75
2023-11-29T00:16:43.299Z,6.00
2023-11-29T00:19:14.476Z,4.80
2023-11-29T00:21:43.147Z,5.22
2023-11-29T00:24:11.600Z,4.45
2023-11-29T00:26:39.582Z,6.32
2023-11-29T00:29:07.595Z,5.87
2023-11-29T00:31:36.061Z,4.97
2023-11-29T00:34:05.501Z,4.12
2023-11-29T00:36:34.076Z,5.10
2023-11-29T00:39:02.718Z,3.97
2023-11-29T00:41:33.324Z,4.75
2023-11-29T00:44:01.246Z,4.32
2023-11-29T00:46:29.890Z,7.47
2023-11-29T00:48:57.865Z,4.22
2023-11-29T00:51:25.818Z,5.35
2023-11-29T00:53:54.870Z,5.10
2023-11-29T00:56:22.719Z,5.97
2023-11-29T00:58:53.921Z,6.15
2023-11-29T01:01:22.361Z,6.43
2023-11-29T01:03:53.494Z,7.03
2023-11-29T01:06:22.435Z,7.82
2023-11-29T01:08:50.604Z,6.82
2023-11-29T01:11:19.771Z,6.47
2023-11-29T01:13:47.834Z,7.43
2023-11-29T01:16:16.132Z,8.07
2023-11-29T01:18:45.061Z,7.82
2023-11-29T01:21:17.204Z,7.10
2023-11-29T01:23:53.929Z,7.70
2023-11-29T01:26:21.711Z,7.28
2023-11-29T01:28:49.554Z,7.57
2023-11-29T01:31:20.438Z,7.18
2023-11-29T01:33:48.289Z,6.43
2023-11-29T01:36:16.370Z,6.72
2023-11-29T01:38:44.605Z,7.18
2023-11-29T01:41:15.610Z,6.87
2023-11-29T01:43:43.573Z,7.30
2023-11-29T01:46:12.240Z,7.10
2023-11-29T01:48:41.129Z,7.50
2023-11-29T01:51:12.349Z,6.85
2023-11-29T01:53:42.073Z,6.70
2023-11-29T01:56:10.533Z,6.15
2023-11-29T01:58:38.473Z,6.72
2023-11-29T02:01:06.958Z,8.27
2023-11-29T02:03:35.270Z,7.32
2023-11-29T02:06:03.324Z,7.03
2023-11-29T02:08:32.645Z,9.38
2023-11-29T02:11:01.126Z,8.32
2023-11-29T02:13:31.015Z,8.70
2023-11-29T02:16:00.654Z,7.78
2023-11-29T02:18:29.260Z,6.10
2023-11-29T02:20:57.375Z,7.55
2023-11-29T02:24:07.471Z,8.48
2023-11-29T02:26:35.929Z,10.85
2023-11-29T02:29:04.524Z,8.13
2023-11-29T02:31:32.470Z,8.43
2023-11-29T02:34:02.870Z,8.20
2023-11-29T02:36:33.942Z,6.40
2023-11-29T02:39:02.199Z,5.60
2023-11-29T02:41:30.281Z,7.57
2023-11-29T02:43:58.556Z,6.20
2023-11-29T02:46:26.942Z,7.70
2023-11-29T02:48:55.483Z,4.85
2023-11-29T02:51:24.570Z,7.32
2023-11-29T02:53:52.981Z,6.97
2023-11-29T02:56:21.380Z,7.80
2023-11-29T02:58:49.439Z,7.85
2023-11-29T03:01:17.877Z,6.85
2023-11-29T03:03:45.756Z,7.43
2023-11-29T03:06:16.893Z,6.85
2023-11-29T03:08:45.341Z,6.80
2023-11-29T03:11:16.307Z,6.18
2023-11-29T03:13:44.300Z,6.20
2023-11-29T03:16:12.675Z,6.10
2023-11-29T03:18:40.844Z,7.53
2023-11-29T03:21:08.890Z,6.05
2023-11-29T03:23:37.168Z,5.28
2023-11-29T03:26:06.398Z,6.93
2023-11-29T03:28:34.344Z,3.22
2023-11-29T03:31:02.728Z,6.07
2023-11-29T03:33:31.001Z,4.68
2023-11-29T03:35:59.066Z,4.75
2023-11-29T03:38:27.503Z,5.43
2023-11-29T03:40:58.352Z,5.00
2023-11-29T03:43:26.328Z,5.12
2023-11-29T03:45:55.310Z,5.03
2023-11-29T03:48:23.404Z,5.30
2023-11-29T03:50:51.438Z,5.28
2023-11-29T03:53:19.923Z,5.35
2023-11-29T03:55:47.980Z,5.47
2023-11-29T03:58:15.932Z,5.62
2023-11-29T04:00:44.591Z,4.47
2023-11-29T04:03:13.103Z,6.07
2023-11-29T04:05:41.350Z,5.57
2023-11-29T04:08:13.921Z,5.28
2023-11-29T04:10:42.271Z,5.32
2023-11-29T04:13:10.350Z,5.12
2023-11-29T04:15:38.733Z,5.53
2023-11-29T04:18:10.635Z,6.12
2023-11-29T04:20:39.121Z,5.28
2023-11-29T04:23:07.610Z,6.35
2023-11-29T04:25:35.636Z,5.50
2023-11-29T04:28:04.887Z,7.12
2023-11-29T04:30:33.883Z,4.87
2023-11-29T04:33:05.414Z,5.70
2023-11-29T04:35:34.315Z,6.40
2023-11-29T04:38:02.604Z,5.55
2023-11-29T04:40:31.513Z,4.90
2023-11-29T04:43:01.605Z,6.20
2023-11-29T04:45:33.485Z,6.03
2023-11-29T04:48:07.779Z,6.40
2023-11-29T04:50:36.133Z,6.93
2023-11-29T04:53:04.802Z,6.80
2023-11-29T04:55:33.240Z,5.90
2023-11-29T04:58:01.690Z,5.78
2023-11-29T05:00:31.961Z,6.85
2023-11-29T05:03:03.571Z,6.93
2023-11-29T05:05:38.278Z,5.62
2023-11-29T05:08:08.846Z,6.28
2023-11-29T05:10:40.724Z,6.78
2023-11-29T05:13:10.883Z,6.03
2023-11-29T05:15:43.010Z,5.03
2023-11-29T05:18:17.077Z,7.57
2023-11-29T05:20:48.763Z,6.68
2023-11-29T05:23:22.054Z,7.03
2023-11-29T05:25:52.928Z,5.82
2023-11-29T05:28:26.706Z,6.25
2023-11-29T05:30:58.093Z,5.68
2023-11-29T05:33:27.995Z,5.55
2023-11-29T05:35:58.633Z,5.62
2023-11-29T05:38:30.759Z,7.20
2023-11-29T05:41:03.961Z,6.60
2023-11-29T05:43:32.739Z,7.57
2023-11-29T05:46:04.651Z,7.05
2023-11-29T05:48:35.817Z,6.65
2023-11-29T05:51:10.210Z,7.47
2023-11-29T05:53:48.777Z,8.05
2023-11-29T05:56:23.588Z,8.25
2023-11-29T05:58:56.751Z,7.47
2023-11-29T06:01:31.301Z,6.18
2023-11-29T06:04:09.748Z,8.45
2023-11-29T06:06:42.974Z,6.78
2023-11-29T06:09:16.884Z,5.53
2023-11-29T06:11:48.967Z,8.00
2023-11-29T06:14:20.987Z,6.10
2023-11-29T06:16:55.719Z,7.18
2023-11-29T06:19:29.825Z,7.20
2023-11-29T06:22:02.395Z,8.02
2023-11-29T06:24:35.392Z,7.15
2023-11-29T06:27:11.319Z,7.28
2023-11-29T06:29:44.661Z,8.50
2023-11-29T06:32:17.779Z,7.45
2023-11-29T06:34:56.021Z,6.15
2023-11-29T06:37:27.880Z,7.30
2023-11-29T06:40:05.023Z,6.68
2023-11-29T06:42:38.279Z,7.25
2023-11-29T06:45:14.611Z,6.87
2023-11-29T06:47:53.234Z,8.30
2023-11-29T06:50:30.984Z,8.45
2023-11-29T06:53:05.349Z,7.22
2023-11-29T06:55:42.671Z,6.37
2023-11-29T06:58:21.729Z,7.55
2023-11-29T07:00:59.417Z,6.00
2023-11-29T07:03:32.957Z,5.75
2023-11-29T07:06:11.236Z,9.02
2023-11-29T07:08:55.932Z,8.40
2023-11-29T07:11:30.007Z,8.70
2023-11-29T07:14:04.098Z,7.65
2023-11-29T07:16:39.869Z,8.30
2023-11-29T07:19:14.848Z,7.95
2023-11-29T07:21:49.537Z,7.57
2023-11-29T07:24:27.109Z,8.68
2023-11-29T07:27:03.897Z,7.75
2023-11-29T07:29:40.796Z,8.20
2023-11-29T07:32:15.350Z,9.38
2023-11-29T07:34:49.055Z,8.38
2023-11-29T07:37:29.283Z,9.45
2023-11-29T07:40:06.137Z,9.50
2023-11-29T07:42:39.601Z,8.98
2023-11-29T07:45:12.878Z,9.27
2023-11-29T07:47:49.474Z,9.40
2023-11-29T07:50:33.534Z,8.73
2023-11-29T07:53:07.945Z,8.27
2023-11-29T07:55:38.740Z,9.43
2023-11-29T07:58:24.490Z,9.00
2023-11-29T08:01:04.422Z,9.32
2023-11-29T08:03:41.890Z,9.32
2023-11-29T08:06:26.934Z,9.90
2023-11-29T08:09:02.595Z,8.50
2023-11-29T08:11:43.139Z,7.95
2023-11-29T08:14:25.274Z,9.02
2023-11-29T08:17:05.467Z,9.32
2023-11-29T08:19:46.838Z,8.90
2023-11-29T08:22:23.102Z,10.02
2023-11-29T08:24:57.172Z,10.55
2023-11-29T08:27:39.704Z,9.82
2023-11-29T08:30:24.878Z,8.88
2023-11-29T08:33:06.453Z,9.32
2023-11-29T08:35:50.764Z,9.27
2023-11-29T08:38:32.285Z,9.70
2023-11-29T08:41:14.527Z,8.55
2023-11-29T08:43:49.178Z,8.30
2023-11-29T08:46:28.761Z,8.27
2023-11-29T08:49:08.351Z,8.70
2023-11-29T08:51:47.589Z,9.15
2023-11-29T08:54:30.036Z,7.87
2023-11-29T08:57:09.307Z,8.75
2023-11-29T08:59:49.467Z,8.82
2023-11-29T09:02:36.454Z,9.48
2023-11-29T09:05:18.097Z,7.72
2023-11-29T09:08:00.736Z,9.00
2023-11-29T09:10:43.718Z,8.88
2023-11-29T09:13:25.994Z,9.10
2023-11-29T09:16:00.913Z,7.82
2023-11-29T09:18:39.384Z,7.78
2023-11-29T09:21:19.223Z,7.45
2023-11-29T09:24:04.314Z,8.25
2023-11-29T09:26:42.263Z,8.23
2023-11-29T09:29:19.162Z,7.68
2023-11-29T09:31:55.539Z,9.02
2023-11-29T09:34:28.395Z,8.27
2023-11-29T09:37:05.621Z,7.85
2023-11-29T09:39:47.429Z,8.02
2023-11-29T09:42:33.557Z,8.98
2023-11-29T09:45:24.666Z,9.63
2023-11-29T09:48:04.955Z,8.07
2023-11-29T09:50:50.856Z,7.72
2023-11-29T09:53:32.169Z,9.75
2023-11-29T09:56:09.755Z,8.95
2023-11-29T09:58:59.964Z,8.25
2023-11-29T10:02:13.316Z,9.07
2023-11-29T10:05:00.153Z,7.00
2023-11-29T10:07:34.741Z,8.85
2023-11-29T10:10:14.287Z,8.50
2023-11-29T10:12:51.077Z,7.90
2023-11-29T10:15:33.543Z,8.15
2023-11-29T10:18:10.344Z,8.38
2023-11-29T10:23:40.582Z,8.43
2023-11-29T10:26:17.265Z,8.65
2023-11-29T10:28:52.800Z,8.60
2023-11-29T10:31:35.472Z,7.72
2023-11-29T10:34:12.747Z,6.82
2023-11-29T10:36:49.934Z,7.50
2023-11-29T10:39:36.685Z,7.32
2023-11-29T10:42:18.109Z,8.07
2023-11-29T10:44:58.644Z,7.50
2023-11-29T10:47:42.687Z,6.65
2023-11-29T10:50:24.987Z,7.00
2023-11-29T10:53:05.569Z,8.68
2023-11-29T10:55:44.389Z,7.18
2023-11-29T10:58:27.019Z,8.18
2023-11-29T11:03:54.593Z,7.97
2023-11-29T11:06:38.572Z,8.30
2023-11-29T11:09:31.726Z,7.62
2023-11-29T11:12:15.455Z,7.03
2023-11-29T11:14:56.885Z,6.50
2023-11-29T11:17:29.532Z,7.40
2023-11-29T11:20:15.832Z,7.82
2023-11-29T11:22:57.020Z,7.32
2023-11-29T11:25:40.963Z,7.78
2023-11-29T11:28:33.279Z,7.43
2023-11-29T11:31:22.872Z,9.05
2023-11-29T11:33:55.374Z,7.25
2023-11-29T11:36:33.255Z,8.77
2023-11-29T11:39:14.529Z,8.50
2023-11-29T11:41:54.968Z,7.50
2023-11-29T11:44:33.092Z,7.87
2023-11-29T11:47:14.097Z,8.32
2023-11-29T11:49:48.979Z,7.40
2023-11-29T11:52:23.092Z,7.80
2023-11-29T11:55:01.802Z,7.32
2023-11-29T11:57:44.856Z,6.80
2023-11-29T12:00:26.156Z,7.47
2023-11-29T12:03:12.076Z,6.40
2023-11-29T12:05:46.409Z,7.45
2023-11-29T12:08:29.528Z,6.12
2023-11-29T12:11:06.239Z,7.28
2023-11-29T12:13:46.929Z,9.75
2023-11-29T12:16:32.068Z,6.60
2023-11-29T12:19:04.309Z,7.30
2023-11-29T12:21:52.877Z,8.20
2023-11-29T12:24:45.688Z,6.55
2023-11-29T12:27:33.032Z,6.55
2023-11-29T12:30:18.843Z,6.65
2023-11-29T12:32:57.400Z,7.82
2023-11-29T12:35:33.439Z,6.78
2023-11-29T12:38:09.104Z,8.57
2023-11-29T12:40:45.869Z,7.25
2023-11-29T12:43:24.990Z,6.95
2023-11-29T12:46:05.425Z,6.82
2023-11-29T12:48:49.997Z,6.97
2023-11-29T12:51:29.557Z,7.20
2023-11-29T12:54:17.173Z,6.40
2023-11-29T12:57:06.290Z,6.53
2023-11-29T12:59:40.028Z,8.40
2023-11-29T13:02:21.595Z,8.25
2023-11-29T13:04:59.233Z,6.90
2023-11-29T13:07:44.049Z,7.30
2023-11-29T13:10:19.803Z,6.72
2023-11-29T13:13:05.663Z,6.97
2023-11-29T13:15:45.076Z,7.20
2023-11-29T13:18:24.569Z,7.05
2023-11-29T13:21:04.030Z,7.82
2023-11-29T13:23:46.319Z,7.62
2023-11-29T13:26:24.152Z,6.15
2023-11-29T13:29:07.353Z,5.15
2023-11-29T13:31:43.229Z,6.75
2023-11-29T13:34:26.053Z,6.72
2023-11-29T13:37:05.124Z,6.22
2023-11-29T13:39:46.913Z,5.70
2023-11-29T13:42:27.639Z,6.85
2023-11-29T13:45:10.665Z,6.62
2023-11-29T13:47:48.734Z,6.57
2023-11-29T13:50:26.473Z,6.35
2023-11-29T13:53:06.411Z,6.47
2023-11-29T13:55:43.576Z,7.90
2023-11-29T13:58:23.673Z,6.40
2023-11-29T14:01:00.635Z,7.40
2023-11-29T14:06:18.991Z,7.32
2023-11-29T14:08:55.108Z,6.68
2023-11-29T14:11:40.070Z,7.12
2023-11-29T14:14:23.113Z,6.25
2023-11-29T14:16:59.846Z,6.85
2023-11-29T14:19:32.035Z,5.93
2023-11-29T14:22:15.724Z,6.05
2023-11-29T14:24:52.606Z,6.75
2023-11-29T14:27:44.444Z,6.90
2023-11-29T14:30:29.746Z,6.10
2023-11-29T14:33:11.192Z,7.37
2023-11-29T14:35:47.972Z,7.37
2023-11-29T14:38:23.241Z,7.12
2023-11-29T14:43:45.244Z,6.10
2023-11-29T14:46:23.480Z,5.85
2023-11-29T14:48:56.728Z,5.72
2023-11-29T14:51:41.017Z,5.35
2023-11-29T14:54:24.798Z,5.10
2023-11-29T14:57:02.192Z,5.25
2023-11-29T14:59:44.111Z,5.60
2023-11-29T15:02:27.423Z,5.47
2023-11-29T15:05:07.288Z,5.85
2023-11-29T15:07:44.495Z,6.05
2023-11-29T15:10:19.511Z,6.18
2023-11-29T15:13:04.043Z,5.07
2023-11-29T15:15:42.651Z,6.30
2023-11-29T15:18:22.201Z,5.60
2023-11-29T15:20:59.381Z,6.07
2023-11-29T15:23:39.948Z,5.30
2023-11-29T15:26:20.366Z,5.90
2023-11-29T15:29:02.295Z,6.47
2023-11-29T15:31:44.759Z,6.12
2023-11-29T15:34:34.596Z,5.60
2023-11-29T15:37:15.204Z,5.90
2023-11-29T15:39:55.425Z,5.72
2023-11-29T15:42:32.259Z,6.53
2023-11-29T15:45:10.651Z,5.55
2023-11-29T15:47:47.897Z,6.03
2023-11-29T15:50:25.238Z,5.40
2023-11-29T15:53:02.288Z,5.87
2023-11-29T15:55:43.620Z,6.00
2023-11-29T15:58:22.333Z,5.97
2023-11-29T16:01:03.290Z,5.95
2023-11-29T16:03:53.277Z,5.97
2023-11-29T16:06:31.117Z,6.32
2023-11-29T16:09:08.864Z,6.18
2023-11-29T16:11:46.852Z,6.18
2023-11-29T16:14:27.564Z,5.75
2023-11-29T16:17:04.362Z,5.70
2023-11-29T16:19:51.311Z,6.07
2023-11-29T16:22:30.721Z,5.93
2023-11-29T16:25:25.052Z,5.80
2023-11-29T16:28:05.700Z,5.20
2023-11-29T16:30:44.115Z,5.43
2023-11-29T16:33:22.108Z,4.80
2023-11-29T16:35:58.349Z,5.57
2023-11-29T16:38:37.238Z,5.37
2023-11-29T16:41:19.315Z,5.87
2023-11-29T16:43:59.230Z,5.32
2023-11-29T16:46:40.219Z,5.05
2023-11-29T16:49:17.322Z,5.90
2023-11-29T16:51:57.961Z,5.45
2023-11-29T16:54:42.192Z,4.30
2023-11-29T16:57:21.658Z,5.45
2023-11-29T17:00:02.655Z,5.32
2023-11-29T17:02:52.333Z,5.65
2023-11-29T17:05:40.427Z,4.90
2023-11-29T17:08:19.589Z,4.62
2023-11-29T17:11:01.270Z,4.72
2023-11-29T17:13:50.226Z,4.30
2023-11-29T17:16:32.849Z,4.72
2023-11-29T17:19:21.092Z,4.72
2023-11-29T17:21:58.292Z,4.35
2023-11-29T17:24:38.335Z,5.25
2023-11-29T17:27:14.603Z,4.22
2023-11-29T17:29:50.311Z,4.57
2023-11-29T17:32:29.853Z,4.97
2023-11-29T17:35:19.178Z,5.35
2023-11-29T17:37:56.334Z,4.82
2023-11-29T17:40:35.098Z,4.85
2023-11-29T17:43:18.323Z,5.68
2023-11-29T17:46:03.431Z,6.07
2023-11-29T17:48:41.571Z,4.12
2023-11-29T17:51:20.256Z,5.60
2023-11-29T17:53:54.278Z,5.22
2023-11-29T17:56:36.606Z,5.25
2023-11-29T17:59:17.785Z,5.03
2023-11-29T18:02:04.000Z,5.55
2023-11-29T18:04:46.330Z,5.20
2023-11-29T18:07:23.146Z,5.30
2023-11-29T18:09:57.017Z,5.30
2023-11-29T18:12:33.460Z,5.43
2023-11-29T18:15:09.670Z,5.10
2023-11-29T18:17:42.602Z,4.95
2023-11-29T18:20:21.119Z,5.37
2023-11-29T18:22:50.997Z,5.05
2023-11-29T18:25:29.901Z,4.60
2023-11-29T18:28:04.216Z,4.80
2023-11-29T18:30:46.022Z,5.28
2023-11-29T18:33:28.935Z,4.87
2023-11-29T18:36:04.103Z,5.22
2023-11-29T18:38:40.632Z,4.47
2023-11-29T18:41:22.926Z,4.95
2023-11-29T18:43:57.073Z,5.12
2023-11-29T18:46:32.256Z,4.68
2023-11-29T18:49:09.284Z,5.20
2023-11-29T18:51:44.533Z,5.78
2023-11-29T18:54:22.359Z,5.10
2023-11-29T18:57:01.501Z,6.20
2023-11-29T19:03:07.623Z,5.50
2023-11-29T19:05:42.597Z,5.47
2023-11-29T19:08:20.302Z,5.32
2023-11-29T19:10:59.218Z,5.20
2023-11-29T19:13:36.010Z,5.15
2023-11-29T19:16:16.910Z,5.45
2023-11-29T19:18:52.054Z,5.65
2023-11-29T19:21:33.494Z,5.43
2023-11-29T19:24:08.107Z,5.15
2023-11-29T19:26:42.914Z,5.07
2023-11-29T19:29:16.042Z,5.62
2023-11-29T19:31:48.480Z,5.50
2023-11-29T19:34:21.375Z,5.22
2023-11-29T19:36:57.475Z,4.85
2023-11-29T19:39:38.034Z,5.87
2023-11-29T19:42:16.526Z,5.82
2023-11-29T19:44:49.439Z,6.22
2023-11-29T19:47:30.649Z,5.47
2023-11-29T19:50:02.989Z,6.03
2023-11-29T19:52:43.726Z,5.57
2023-11-29T19:55:19.664Z,5.87
2023-11-29T19:57:53.920Z,4.75
2023-11-29T20:00:25.027Z,5.07
2023-11-29T20:02:59.858Z,6.22
2023-11-29T20:05:34.720Z,5.03
2023-11-29T20:08:10.674Z,5.75
2023-11-29T20:10:41.635Z,6.43
2023-11-29T20:13:18.349Z,5.80
2023-11-29T20:15:56.486Z,5.78
2023-11-29T20:18:36.544Z,4.62
2023-11-29T20:21:09.759Z,5.70
2023-11-29T20:23:40.497Z,5.68
2023-11-29T20:26:11.171Z,4.97
2023-11-29T20:28:43.631Z,5.95
2023-11-29T20:31:16.272Z,5.35
2023-11-29T20:33:50.872Z,5.60
2023-11-29T20:36:24.980Z,4.35
2023-11-29T20:39:05.601Z,5.68
2023-11-29T20:41:39.330Z,4.57
2023-11-29T20:44:11.266Z,4.87
2023-11-29T20:46:43.986Z,4.60
2023-11-29T20:49:17.578Z,4.35
2023-11-29T20:51:46.750Z,4.95
2023-11-29T20:54:18.127Z,4.57
2023-11-29T20:56:47.946Z,4.40
2023-11-29T20:59:19.343Z,4.68
2023-11-29T21:01:50.928Z,3.95
2023-11-29T21:04:21.143Z,4.47
2023-11-29T21:06:50.363Z,3.55
2023-11-29T21:09:19.660Z,4.15
2023-11-29T21:11:49.563Z,4.75
2023-11-29T21:14:18.011Z,4.60
2023-11-29T21:16:47.016Z,4.65
2023-11-29T21:19:15.975Z,4.25
2023-11-29T21:21:45.601Z,3.85
2023-11-29T21:24:13.872Z,4.03
2023-11-29T21:26:42.585Z,5.10
2023-11-29T21:29:11.940Z,3.85
2023-11-29T21:31:39.924Z,4.00
2023-11-29T21:34:08.541Z,4.30
2023-11-29T21:36:38.053Z,4.70
2023-11-29T21:39:07.350Z,3.87
2023-11-29T21:41:35.623Z,3.58
2023-11-29T21:44:04.126Z,4.18
2023-11-29T21:46:35.078Z,3.85
2023-11-29T21:49:03.508Z,4.03
2023-11-29T21:51:34.260Z,4.25
2023-11-29T21:54:02.267Z,4.18
2023-11-29T21:56:30.803Z,3.45
2023-11-29T21:58:58.695Z,3.90
2023-11-29T22:01:26.700Z,3.92
2023-11-29T22:03:55.104Z,4.50
2023-11-29T22:06:27.565Z,3.95
2023-11-29T22:11:26.631Z,3.72
2023-11-29T22:13:54.508Z,3.33
2023-11-29T22:16:23.665Z,3.50
2023-11-29T22:18:53.031Z,3.45
2023-11-29T22:21:25.507Z,4.20
2023-11-29T22:26:25.437Z,3.45
2023-11-29T22:28:57.115Z,3.53
2023-11-29T22:31:24.902Z,3.70
2023-11-29T22:33:53.214Z,3.85
2023-11-29T22:36:21.431Z,5.15
2023-11-29T22:38:49.751Z,3.60
2023-11-29T22:41:29.835Z,3.97
2023-11-29T22:43:58.595Z,4.80
2023-11-29T22:46:30.714Z,4.47
2023-11-29T22:48:58.777Z,3.75
2023-11-29T22:51:28.883Z,4.15
2023-11-29T22:53:58.225Z,3.80
2023-11-29T22:56:26.319Z,4.00
2023-11-29T22:58:54.147Z,4.45
2023-11-29T23:01:29.278Z,4.05
2023-11-29T23:03:57.849Z,4.30
2023-11-29T23:06:26.385Z,3.65
2023-11-29T23:08:55.542Z,3.42
2023-11-29T23:11:24.205Z,4.28
2023-11-29T23:13:53.219Z,4.32
2023-11-29T23:16:21.439Z,4.05
2023-11-29T23:18:53.007Z,4.37
2023-11-29T23:21:21.056Z,3.40
2023-11-29T23:23:49.637Z,3.60
2023-11-29T23:26:17.708Z,3.95
2023-11-29T23:28:45.537Z,3.78
2023-11-29T23:31:16.776Z,3.67
2023-11-29T23:33:44.682Z,3.72
2023-11-29T23:36:12.723Z,3.50
2023-11-29T23:38:41.004Z,3.60
2023-11-29T23:41:09.000Z,3.80
2023-11-29T23:43:36.804Z,4.15
2023-11-29T23:46:05.036Z,3.05
2023-11-29T23:48:32.879Z,2.78
2023-11-29T23:51:00.907Z,3.53
2023-11-29T23:53:29.225Z,3.42
2023-11-29T23:55:57.007Z,3.58
2023-11-29T23:58:24.859Z,3.72
